Terminal Aerodrome Forecast
Issued by NWS Glasgow, MT

Home | Current Version | Previous Version | Text Only | Print | Product List | Glossary On
Versions: 1 2 3 4 5 6 7 8 9 10 11 12 13 14 15 16 17
000
FTUS45 KGGW 270500 RRA
TAFGGW
TAF
KGGW 270548Z 2706/2806 11017KT 5SM -SN SCT018 OVC050
     FM270700 11017KT 5SM -SN OVC018
     FM271200 11015KT 3SM -FZRASN OVC005
     FM271800 11007KT P6SM OVC009
     FM280000 00000KT P6SM BKN027=

USA.gov is the U.S. government's official web portal to all federal, state and local government web resources and services.